Kezdőlap
METAR-TAF:

METAR-TAF

Repülőterek :

Pittsfield Penstone Municipal Airport

Pittsfield, Illinois, Amerikai Egyesült Államok

földrajzi szélesség: 39-38-20N, földrajzi hosszúság: 090-46-42W, magasság: 216 m

Jelenlegi meteorológiai megfigyelések

A jelentés 25 perccel ezelõtt készült, 20:35 UTC
Észak-északnyugati szél 11 kt széllökések: 18 kt
Hőmérséklet 21°C
Páratartalom 40%
Légköri nyomás 1022 hPa
Látótávolság: 16.1 km
Szakadozott felhőzet 6500 lábon

METAR: KPPQ 222035Z AUTO 34011G18KT 10SM BKN065 21/07 A3017 RMK AO2 T02130070

Idő: 16:00 (21:00 UTC)


TAF: hiányzik

Meteorológiai megfigyelések és előrejelzések több, mint 4000 repülőtéren (METAR és TAF jelentéseket).

A térképen piros és sárga pontok jelzik az elérhető meteorológiai állomásokat.

Mozgassa az egeret a pont fölött, hogy megjelenjen az állomás neve.

Azután kattintson az időjárási megfigyelések és előrejelzések megtekintéséhez.

A térkép megváltoztatása: kattintson a fekete keresztel jelölt zöld gombra ráközelítéshez, a vonallal jelölt zöld gombra távolításhoz, vagy a zöld nyilakra a szomszédos térképek eléréséhez.


METAR-TAF: